Time;durP1;ratioP1;P1;durP2;ratioP2;P2;SDS_P1;SDS_P2;PMS_P1;PMS_P2;Temp;Humidity;BMP_temperature;BMP_pressure;BME280_temperature;BME280_humidity;BME280_pressure;Samples;Min_cycle;Max_cycle;Signal;HPM_P1;HPM_P2
2021/12/06 00:00:39;;;;;;;49.35;26.58;;;2.10;99.90;;;;;;5080945;28;20401;-52
2021/12/06 00:03:10;;;;;;;61.45;29.15;;;2.10;99.90;;;;;;5053701;28;20239;-54
2021/12/06 00:05:38;;;;;;;45.55;26.25;;;2.00;99.90;;;;;;5062209;28;20505;-51
2021/12/06 00:08:05;;;;;;;50.55;27.90;;;2.00;99.90;;;;;;5064773;28;20219;-51
2021/12/06 00:10:33;;;;;;;48.55;25.33;;;2.20;99.90;;;;;;5066436;28;20269;-53
2021/12/06 00:13:01;;;;;;;51.08;30.15;;;2.10;99.90;;;;;;5061358;28;20239;-51
2021/12/06 00:15:32;;;;;;;47.17;25.40;;;2.20;99.90;;;;;;5067952;28;20211;-53
2021/12/06 00:18:02;;;;;;;47.13;27.17;;;2.10;99.90;;;;;;5072335;28;20222;-54
2021/12/06 00:20:29;;;;;;;55.20;27.55;;;1.90;99.90;;;;;;5083046;28;20241;-49
2021/12/06 00:22:57;;;;;;;44.95;24.77;;;1.90;99.90;;;;;;5082894;28;20222;-52
2021/12/06 00:25:24;;;;;;;49.58;27.00;;;1.80;99.90;;;;;;5080116;28;20195;-53
2021/12/06 00:27:51;;;;;;;47.10;27.13;;;1.80;99.90;;;;;;5080044;28;20431;-54
2021/12/06 00:30:19;;;;;;;43.53;23.08;;;1.70;99.90;;;;;;5079569;28;20202;-54
2021/12/06 00:32:47;;;;;;;43.55;25.50;;;1.70;99.90;;;;;;5080017;28;20273;-51
2021/12/06 00:35:21;;;;;;;45.25;26.30;;;1.60;99.90;;;;;;5080462;28;20256;-53
2021/12/06 00:37:56;;;;;;;37.70;25.42;;;1.70;99.90;;;;;;5081267;28;20206;-51
2021/12/06 00:40:28;;;;;;;48.85;24.90;;;1.70;99.90;;;;;;5080425;28;20494;-54
2021/12/06 00:42:55;;;;;;;45.22;26.63;;;1.70;99.90;;;;;;5080487;28;20416;-54
2021/12/06 00:45:23;;;;;;;48.78;23.58;;;1.60;99.90;;;;;;5080755;28;20221;-53
2021/12/06 00:47:51;;;;;;;42.63;23.70;;;1.60;99.90;;;;;;5080065;28;20256;-50
2021/12/06 00:50:20;;;;;;;43.50;25.42;;;1.50;99.90;;;;;;5080353;28;20203;-52
2021/12/06 00:52:48;;;;;;;44.05;22.70;;;1.50;99.90;;;;;;5079688;28;20249;-51
2021/12/06 00:55:16;;;;;;;53.45;25.98;;;1.50;99.90;;;;;;5079965;28;20436;-52
2021/12/06 00:57:44;;;;;;;43.75;23.33;;;1.50;99.90;;;;;;5080179;28;20505;-52
2021/12/06 01:00:18;;;;;;;44.97;24.13;;;1.50;99.90;;;;;;5090432;28;20227;-55
2021/12/06 01:02:45;;;;;;;46.17;24.42;;;1.40;99.90;;;;;;5081736;28;20223;-54
2021/12/06 01:05:12;;;;;;;42.67;22.95;;;1.50;99.90;;;;;;5080198;28;20195;-50
2021/12/06 01:07:41;;;;;;;47.30;27.85;;;1.40;99.90;;;;;;5079501;28;20351;-51
2021/12/06 01:10:09;;;;;;;48.90;27.63;;;1.30;99.90;;;;;;5080082;28;20268;-51
2021/12/06 01:12:37;;;;;;;55.97;27.92;;;1.40;99.90;;;;;;5079798;28;20244;-50
2021/12/06 01:15:06;;;;;;;48.33;25.00;;;1.50;99.90;;;;;;5079821;28;20198;-53
2021/12/06 01:17:33;;;;;;;55.63;26.20;;;1.50;99.90;;;;;;5079995;28;20210;-52
2021/12/06 01:20:04;;;;;;;43.83;25.83;;;1.60;99.90;;;;;;5079213;28;20238;-53
2021/12/06 01:22:42;;;;;;;42.08;26.35;;;1.50;99.90;;;;;;5079478;28;20234;-50
2021/12/06 01:25:24;;;;;;;43.03;24.48;;;1.50;99.90;;;;;;5080197;28;20357;-53
2021/12/06 01:41:20;;;;;;;53.42;27.35;;;1.40;99.90;;;;;;5080167;28;20268;-53
2021/12/06 01:44:10;;;;;;;47.72;26.23;;;1.40;99.90;;;;;;5080620;28;20203;-51
2021/12/06 01:47:03;;;;;;;49.40;28.08;;;1.50;99.90;;;;;;5080465;28;20510;-51
2021/12/06 01:49:34;;;;;;;52.90;27.73;;;1.50;99.90;;;;;;5080005;28;20199;-54
2021/12/06 01:52:09;;;;;;;48.20;27.98;;;1.50;99.90;;;;;;5079585;28;20272;-50
2021/12/06 01:54:37;;;;;;;56.15;29.05;;;1.50;99.90;;;;;;5079893;28;20202;-52
2021/12/06 01:57:05;;;;;;;55.65;27.58;;;1.50;99.90;;;;;;5079403;28;20329;-52
2021/12/06 01:59:32;;;;;;;59.03;29.05;;;1.60;99.90;;;;;;5080812;28;20509;-49
2021/12/06 02:02:00;;;;;;;53.00;26.30;;;1.60;99.90;;;;;;5082576;28;20421;-52
2021/12/06 02:04:29;;;;;;;66.57;31.88;;;1.70;99.90;;;;;;5082379;28;20270;-55
2021/12/06 02:06:57;;;;;;;73.28;34.85;;;1.50;99.90;;;;;;5082904;28;20210;-51
2021/12/06 02:09:27;;;;;;;55.97;31.63;;;1.40;99.90;;;;;;5082697;28;20194;-52
2021/12/06 02:11:58;;;;;;;48.13;26.17;;;1.40;99.90;;;;;;5082466;28;20264;-53
2021/12/06 02:14:34;;;;;;;66.00;28.98;;;1.30;99.90;;;;;;5084642;28;20199;-55
2021/12/06 02:17:12;;;;;;;56.08;28.75;;;1.20;99.90;;;;;;5085122;28;20393;-53
2021/12/06 02:19:46;;;;;;;66.50;32.45;;;1.30;99.90;;;;;;5083480;28;20206;-54
2021/12/06 02:22:23;;;;;;;65.85;33.15;;;1.20;99.90;;;;;;5075432;28;20579;-52
2021/12/06 02:24:53;;;;;;;56.42;32.10;;;1.20;99.90;;;;;;5069925;28;20187;-52
2021/12/06 02:27:23;;;;;;;63.85;32.05;;;1.20;99.90;;;;;;5062252;28;20241;-53
2021/12/06 02:29:52;;;;;;;57.97;32.13;;;1.30;99.90;;;;;;5062028;28;20242;-50
2021/12/06 02:32:20;;;;;;;52.95;28.10;;;1.20;99.90;;;;;;5061492;28;20277;-54
2021/12/06 02:34:51;;;;;;;56.00;30.48;;;1.10;99.90;;;;;;5061952;28;20199;-53
2021/12/06 02:37:27;;;;;;;60.17;33.08;;;1.20;99.90;;;;;;5061781;28;20202;-52
2021/12/06 02:40:04;;;;;;;59.08;33.78;;;1.20;99.90;;;;;;5070943;28;20525;-55
2021/12/06 02:42:32;;;;;;;61.15;35.60;;;1.20;99.90;;;;;;5062892;28;20281;-54
2021/12/06 02:44:59;;;;;;;65.15;36.47;;;1.10;99.90;;;;;;5061532;28;20502;-52
2021/12/06 02:47:26;;;;;;;66.97;33.95;;;1.00;99.90;;;;;;5062106;28;20238;-54
2021/12/06 02:49:53;;;;;;;76.53;38.47;;;1.10;99.90;;;;;;5063826;28;20195;-53
2021/12/06 02:52:21;;;;;;;67.03;32.15;;;1.00;99.90;;;;;;5063546;28;20220;-57
2021/12/06 02:54:55;;;;;;;63.53;36.08;;;1.00;99.90;;;;;;5061917;28;20200;-51
2021/12/06 02:57:33;;;;;;;68.35;36.42;;;1.00;99.90;;;;;;5061655;28;20475;-53
2021/12/06 03:00:00;;;;;;;74.55;34.85;;;1.00;99.90;;;;;;5061278;28;20560;-51
2021/12/06 03:02:30;;;;;;;60.75;35.90;;;1.00;99.90;;;;;;5043683;28;20277;-55
2021/12/06 03:04:58;;;;;;;67.95;34.33;;;1.00;99.90;;;;;;5061465;28;20282;-53
2021/12/06 03:07:28;;;;;;;61.22;34.97;;;1.00;99.90;;;;;;5061596;28;20217;-51
2021/12/06 03:09:56;;;;;;;60.47;33.28;;;1.00;99.90;;;;;;5060676;28;20552;-52
2021/12/06 03:12:27;;;;;;;62.65;34.78;;;1.00;99.90;;;;;;5070362;28;20223;-54
2021/12/06 03:14:57;;;;;;;84.18;41.63;;;1.00;99.90;;;;;;5081271;28;20244;-52
2021/12/06 03:17:27;;;;;;;84.53;41.30;;;1.00;99.90;;;;;;5081773;28;21083;-51
2021/12/06 03:19:54;;;;;;;77.72;39.95;;;1.00;99.90;;;;;;5082686;28;20220;-57
2021/12/06 03:22:22;;;;;;;69.15;36.60;;;1.10;99.90;;;;;;5086224;28;20241;-54
2021/12/06 03:24:50;;;;;;;75.82;38.88;;;1.00;99.90;;;;;;5086129;28;20253;-50
2021/12/06 03:27:18;;;;;;;78.20;40.72;;;0.90;99.90;;;;;;5087454;28;20195;-51
2021/12/06 03:29:46;;;;;;;80.05;36.42;;;0.90;99.90;;;;;;5083834;28;20233;-53
2021/12/06 03:32:14;;;;;;;76.60;38.90;;;0.90;99.90;;;;;;5080694;28;20230;-52
2021/12/06 03:34:42;;;;;;;77.60;40.22;;;0.80;99.90;;;;;;5081062;28;20207;-54
2021/12/06 03:37:10;;;;;;;66.22;35.95;;;0.90;99.90;;;;;;5080237;28;20198;-53
2021/12/06 03:39:43;;;;;;;90.53;40.35;;;0.80;99.90;;;;;;5069586;28;20502;-51
2021/12/06 03:42:13;;;;;;;79.32;38.85;;;0.70;99.90;;;;;;5075177;28;20222;-54
2021/12/06 03:44:41;;;;;;;68.80;35.90;;;0.70;99.90;;;;;;5080709;28;20207;-55
2021/12/06 03:47:13;;;;;;;75.65;39.42;;;0.70;99.90;;;;;;5080426;28;20252;-56
2021/12/06 03:49:44;;;;;;;68.75;38.17;;;0.70;99.90;;;;;;5080442;28;20195;-52
2021/12/06 03:52:13;;;;;;;79.43;35.70;;;0.70;99.90;;;;;;5080178;28;20218;-55
2021/12/06 03:54:42;;;;;;;83.85;39.03;;;0.70;99.90;;;;;;5080421;28;20547;-55
2021/12/06 03:57:10;;;;;;;79.68;38.72;;;0.80;99.90;;;;;;5080273;28;20421;-55
2021/12/06 03:59:37;;;;;;;70.78;38.00;;;0.80;99.90;;;;;;5080115;28;20244;-56
2021/12/06 04:02:05;;;;;;;86.78;43.88;;;0.70;99.90;;;;;;5079596;28;20223;-51
2021/12/06 04:04:33;;;;;;;74.40;35.92;;;0.70;99.90;;;;;;5079867;28;20217;-53
2021/12/06 04:07:00;;;;;;;82.18;35.22;;;0.60;99.90;;;;;;5080321;28;20217;-54
2021/12/06 04:09:28;;;;;;;66.75;36.70;;;0.50;99.90;;;;;;5079772;28;20199;-55
2021/12/06 04:11:55;;;;;;;73.55;34.80;;;0.60;99.90;;;;;;5079475;28;20215;-55
2021/12/06 04:14:22;;;;;;;66.82;33.60;;;0.60;99.90;;;;;;5080381;28;20191;-52
2021/12/06 04:16:50;;;;;;;80.20;37.80;;;0.60;99.90;;;;;;5079546;28;20514;-54
2021/12/06 04:19:17;;;;;;;74.90;37.67;;;0.50;99.90;;;;;;5090774;28;20191;-56
2021/12/06 04:21:46;;;;;;;69.50;35.60;;;0.50;99.90;;;;;;5083725;28;20449;-54
2021/12/06 04:24:16;;;;;;;83.43;40.22;;;0.50;99.90;;;;;;5080298;28;20272;-55
2021/12/06 04:26:44;;;;;;;67.32;36.55;;;0.50;99.90;;;;;;5079982;28;20195;-58
2021/12/06 04:29:12;;;;;;;77.78;39.63;;;0.50;99.90;;;;;;5079933;28;20397;-54
2021/12/06 04:31:50;;;;;;;86.30;40.17;;;0.50;99.90;;;;;;5079216;28;20264;-55
2021/12/06 04:34:18;;;;;;;82.00;38.10;;;0.50;99.90;;;;;;5079894;28;20237;-52
2021/12/06 04:36:46;;;;;;;71.00;34.75;;;0.60;99.90;;;;;;5061919;28;20555;-55
2021/12/06 04:39:21;;;;;;;62.35;34.33;;;0.60;99.90;;;;;;5079207;28;20211;-54
2021/12/06 04:41:49;;;;;;;80.75;35.85;;;0.60;99.90;;;;;;5079566;28;20272;-54
2021/12/06 04:44:16;;;;;;;66.40;35.33;;;0.60;99.90;;;;;;5079640;28;20218;-55
2021/12/06 04:46:44;;;;;;;75.13;36.95;;;0.60;99.90;;;;;;5079768;28;20199;-54
2021/12/06 04:49:11;;;;;;;72.18;37.45;;;0.60;99.90;;;;;;5079492;28;20199;-52
2021/12/06 04:51:42;;;;;;;68.18;34.58;;;0.60;99.90;;;;;;5079623;28;20521;-53
2021/12/06 04:54:12;;;;;;;64.35;31.02;;;0.60;99.90;;;;;;5079567;28;20621;-52
2021/12/06 04:56:44;;;;;;;73.00;38.33;;;0.60;99.90;;;;;;5079794;28;20256;-52
2021/12/06 04:59:22;;;;;;;85.40;38.92;;;0.60;99.90;;;;;;5079249;28;20202;-54
2021/12/06 05:01:53;;;;;;;81.47;37.67;;;0.60;99.90;;;;;;5075212;28;20502;-55
2021/12/06 05:04:25;;;;;;;88.93;37.45;;;0.60;99.90;;;;;;5063463;28;20227;-57
2021/12/06 05:06:56;;;;;;;80.78;35.67;;;0.60;99.90;;;;;;5061123;28;20217;-54
2021/12/06 05:09:35;;;;;;;75.82;36.60;;;0.60;99.90;;;;;;5062504;28;20388;-55
2021/12/06 05:12:03;;;;;;;67.15;32.55;;;0.60;99.90;;;;;;5065901;28;20227;-56
2021/12/06 05:14:31;;;;;;;82.95;36.00;;;0.60;99.90;;;;;;5071371;28;20199;-54
2021/12/06 05:16:58;;;;;;;69.57;36.53;;;0.60;99.90;;;;;;5076879;28;20199;-54
2021/12/06 05:19:25;;;;;;;77.93;33.63;;;0.60;99.90;;;;;;5076117;28;20385;-55
2021/12/06 05:21:53;;;;;;;77.30;34.72;;;0.70;99.90;;;;;;5078301;28;20230;-54
2021/12/06 05:24:20;;;;;;;73.28;36.08;;;0.70;99.90;;;;;;5069714;28;20284;-56
2021/12/06 05:26:48;;;;;;;73.57;34.88;;;0.70;99.90;;;;;;5066493;28;20195;-51
2021/12/06 05:29:20;;;;;;;61.05;30.50;;;0.70;99.90;;;;;;5059119;28;20195;-52
2021/12/06 05:31:54;;;;;;;59.67;30.48;;;0.70;99.90;;;;;;5058791;28;20224;-52
2021/12/06 05:34:38;;;;;;;69.45;37.47;;;0.70;99.90;;;;;;5061899;28;20203;-51
2021/12/06 05:37:08;;;;;;;58.90;28.88;;;0.80;99.90;;;;;;5063141;28;20441;-52
2021/12/06 05:39:35;;;;;;;58.78;31.52;;;0.80;99.90;;;;;;5062999;28;20222;-53
2021/12/06 05:42:06;;;;;;;68.22;30.73;;;0.90;99.90;;;;;;5062374;28;20560;-54
2021/12/06 05:44:33;;;;;;;56.08;31.60;;;0.90;99.90;;;;;;5062690;28;20428;-52
2021/12/06 05:47:02;;;;;;;46.15;27.10;;;0.90;99.90;;;;;;5062607;28;20254;-52
2021/12/06 05:49:30;;;;;;;48.70;28.38;;;1.00;99.90;;;;;;5062283;28;20364;-54
2021/12/06 05:51:57;;;;;;;52.10;27.45;;;0.90;99.90;;;;;;5062295;28;20591;-55
2021/12/06 05:54:25;;;;;;;55.35;30.55;;;0.90;99.90;;;;;;5070167;28;20211;-57
2021/12/06 05:56:52;;;;;;;55.40;28.55;;;0.80;99.90;;;;;;5071463;28;20222;-56
2021/12/06 05:59:21;;;;;;;54.00;29.70;;;0.80;99.90;;;;;;5079009;28;20224;-55
2021/12/06 06:01:50;;;;;;;47.15;27.00;;;0.90;99.90;;;;;;5084141;28;20533;-52
2021/12/06 06:04:18;;;;;;;63.65;28.70;;;0.90;99.90;;;;;;5082435;28;20301;-52
2021/12/06 06:06:45;;;;;;;53.50;26.73;;;0.90;99.90;;;;;;5081918;28;20209;-58
2021/12/06 06:09:13;;;;;;;56.97;28.95;;;0.90;99.90;;;;;;5081684;28;20199;-56
2021/12/06 06:11:41;;;;;;;48.90;25.27;;;0.90;99.90;;;;;;5062900;28;20260;-55
2021/12/06 06:14:08;;;;;;;46.58;25.52;;;1.00;99.90;;;;;;5064422;28;20203;-53
2021/12/06 06:16:46;;;;;;;54.55;27.98;;;0.90;99.90;;;;;;5081927;28;20252;-54
2021/12/06 06:19:16;;;;;;;54.15;29.92;;;0.90;99.90;;;;;;5082408;28;20260;-55
2021/12/06 06:21:44;;;;;;;55.70;26.98;;;1.00;99.90;;;;;;5081836;28;20219;-57
2021/12/06 06:24:11;;;;;;;59.90;27.90;;;1.00;99.90;;;;;;5081528;28;20348;-55
2021/12/06 06:26:39;;;;;;;56.17;27.48;;;1.20;99.90;;;;;;5082115;28;20199;-57
2021/12/06 06:29:07;;;;;;;53.28;28.58;;;1.20;99.90;;;;;;5081371;28;20195;-52
2021/12/06 06:31:35;;;;;;;50.25;27.63;;;1.10;99.90;;;;;;5081877;28;20288;-57
2021/12/06 06:34:03;;;;;;;43.58;25.15;;;1.10;99.90;;;;;;5081445;28;20198;-52
2021/12/06 06:36:34;;;;;;;60.15;29.73;;;1.10;99.90;;;;;;5082213;28;20202;-53
2021/12/06 06:39:07;;;;;;;53.97;26.98;;;1.10;99.90;;;;;;5081119;28;20202;-54
2021/12/06 06:41:35;;;;;;;43.65;24.95;;;1.20;99.90;;;;;;5081114;28;20226;-55
2021/12/06 06:44:03;;;;;;;62.22;26.45;;;1.20;99.90;;;;;;5081335;28;20317;-55
2021/12/06 06:46:32;;;;;;;43.13;25.65;;;1.20;99.90;;;;;;5081211;28;20199;-52
2021/12/06 06:48:59;;;;;;;56.38;27.95;;;1.20;99.90;;;;;;5081631;28;20222;-53
2021/12/06 06:51:28;;;;;;;51.53;26.23;;;1.20;99.90;;;;;;5081099;28;20269;-53
2021/12/06 06:53:56;;;;;;;43.40;27.27;;;1.30;99.90;;;;;;5081414;28;20269;-52
2021/12/06 06:56:24;;;;;;;46.33;23.30;;;1.20;99.90;;;;;;5081217;28;20214;-57
2021/12/06 06:58:51;;;;;;;45.75;24.85;;;1.10;99.90;;;;;;5068183;28;20258;-55
2021/12/06 07:01:19;;;;;;;51.95;25.40;;;1.10;99.90;;;;;;5065430;28;20223;-53
2021/12/06 07:03:50;;;;;;;55.35;26.50;;;1.00;99.90;;;;;;5066980;28;20239;-53
2021/12/06 07:06:18;;;;;;;45.97;23.55;;;1.00;99.90;;;;;;5068697;28;20260;-56
2021/12/06 07:08:45;;;;;;;51.97;27.40;;;1.00;99.90;;;;;;5063718;28;20207;-54
2021/12/06 07:11:12;;;;;;;47.28;26.35;;;1.00;99.90;;;;;;5063487;28;20403;-55
2021/12/06 07:13:40;;;;;;;52.13;26.00;;;1.00;99.90;;;;;;5067936;28;20199;-55
2021/12/06 07:16:08;;;;;;;44.42;24.95;;;1.10;99.90;;;;;;5073723;28;20225;-53
2021/12/06 07:18:36;;;;;;;50.40;25.83;;;1.00;99.90;;;;;;5065690;28;20203;-56
2021/12/06 07:21:05;;;;;;;50.58;25.02;;;1.10;99.90;;;;;;5067954;28;20227;-53
2021/12/06 07:23:38;;;;;;;39.65;23.05;;;1.10;99.90;;;;;;5071236;28;20219;-51
2021/12/06 07:26:11;;;;;;;51.22;25.50;;;1.20;99.90;;;;;;5081122;28;20198;-52
2021/12/06 07:28:39;;;;;;;46.88;24.90;;;1.30;99.90;;;;;;5080399;28;20241;-56
2021/12/06 07:31:09;;;;;;;40.75;23.48;;;1.10;99.90;;;;;;5080587;28;20240;-54
2021/12/06 07:33:36;;;;;;;48.47;26.00;;;1.10;99.90;;;;;;5080755;28;20245;-53
2021/12/06 07:36:04;;;;;;;46.97;27.00;;;1.00;99.90;;;;;;5080593;28;20199;-55
2021/12/06 07:38:34;;;;;;;49.72;27.08;;;1.00;99.90;;;;;;5091046;28;20199;-55
2021/12/06 07:41:02;;;;;;;54.90;28.73;;;1.10;99.90;;;;;;5083512;28;20471;-51
2021/12/06 07:43:29;;;;;;;62.75;28.25;;;1.10;99.90;;;;;;5080700;28;20276;-54
2021/12/06 07:45:57;;;;;;;49.38;26.33;;;1.10;99.90;;;;;;5079967;28;20234;-55
2021/12/06 07:48:24;;;;;;;48.90;26.58;;;1.10;99.90;;;;;;5080429;28;20254;-57
2021/12/06 07:50:51;;;;;;;41.45;23.52;;;1.10;99.90;;;;;;5080663;28;20219;-54
2021/12/06 07:53:19;;;;;;;54.75;28.60;;;1.10;99.90;;;;;;5079885;28;20221;-53
2021/12/06 07:55:46;;;;;;;49.30;26.13;;;1.10;99.90;;;;;;5080347;28;20199;-53
2021/12/06 07:58:14;;;;;;;51.63;26.50;;;1.00;99.90;;;;;;5079698;28;20202;-52
2021/12/06 08:00:44;;;;;;;49.50;23.63;;;0.90;99.90;;;;;;5080229;28;20227;-52
2021/12/06 08:03:13;;;;;;;47.88;25.17;;;1.10;99.90;;;;;;5079849;28;20227;-56
2021/12/06 08:05:44;;;;;;;51.00;26.10;;;1.00;99.90;;;;;;5080378;28;20201;-52
2021/12/06 08:08:16;;;;;;;50.90;28.35;;;1.10;99.90;;;;;;5080887;28;20229;-55
2021/12/06 08:10:47;;;;;;;55.08;29.92;;;1.00;99.90;;;;;;5081981;28;20417;-53
2021/12/06 08:13:18;;;;;;;41.38;27.10;;;1.00;99.90;;;;;;5079928;28;20206;-51
2021/12/06 08:15:45;;;;;;;42.60;25.98;;;1.10;99.90;;;;;;5080737;28;20199;-52
2021/12/06 08:18:12;;;;;;;46.17;24.20;;;1.20;99.90;;;;;;5067249;28;20230;-55
2021/12/06 08:20:41;;;;;;;40.28;21.02;;;1.20;99.90;;;;;;5088231;28;20219;-53
2021/12/06 08:23:08;;;;;;;44.00;25.17;;;1.20;99.90;;;;;;5088379;28;20444;-54
2021/12/06 08:25:37;;;;;;;42.15;21.70;;;1.10;99.90;;;;;;5088774;28;20217;-56
2021/12/06 08:28:04;;;;;;;35.70;21.13;;;1.10;99.90;;;;;;5089582;28;20210;-57
2021/12/06 08:30:32;;;;;;;42.00;24.25;;;1.10;99.90;;;;;;5091566;28;20226;-58
2021/12/06 08:33:03;;;;;;;38.45;23.52;;;1.10;99.90;;;;;;5084178;28;20290;-51
2021/12/06 08:35:38;;;;;;;41.30;21.17;;;1.10;99.90;;;;;;5080864;28;20195;-51
2021/12/06 08:38:07;;;;;;;39.10;20.35;;;1.20;99.90;;;;;;5079966;28;20209;-56
2021/12/06 08:40:35;;;;;;;39.67;22.25;;;1.20;99.90;;;;;;5079988;28;20219;-51
2021/12/06 08:43:03;;;;;;;38.25;19.80;;;1.10;99.90;;;;;;5079693;28;20199;-52
2021/12/06 08:45:31;;;;;;;37.17;21.02;;;1.10;99.90;;;;;;5080856;28;20205;-55
2021/12/06 08:47:59;;;;;;;29.30;19.02;;;1.10;99.90;;;;;;5080407;28;20509;-52
2021/12/06 08:50:30;;;;;;;36.10;21.55;;;1.10;99.90;;;;;;5083402;28;20199;-53
2021/12/06 08:52:57;;;;;;;39.63;20.83;;;1.10;99.90;;;;;;5085636;28;20194;-55
2021/12/06 08:55:25;;;;;;;37.50;20.83;;;1.20;99.90;;;;;;5077710;28;20203;-53
2021/12/06 08:57:53;;;;;;;43.58;19.80;;;1.20;99.90;;;;;;5064142;28;20241;-56
2021/12/06 09:00:26;;;;;;;37.92;21.38;;;1.10;99.90;;;;;;5061405;28;20384;-54
2021/12/06 09:02:53;;;;;;;42.35;22.48;;;1.00;99.90;;;;;;5060748;28;20203;-52
2021/12/06 09:05:26;;;;;;;36.63;19.38;;;1.10;99.90;;;;;;5060787;28;20487;-52
2021/12/06 09:07:53;;;;;;;42.60;21.73;;;1.10;99.90;;;;;;5068572;28;20199;-55
2021/12/06 09:10:21;;;;;;;40.03;22.58;;;1.20;99.90;;;;;;5080332;28;20195;-54
2021/12/06 09:12:49;;;;;;;37.17;19.63;;;1.30;99.90;;;;;;5083896;28;20269;-53
2021/12/06 09:15:19;;;;;;;47.85;25.05;;;1.20;99.90;;;;;;5083967;28;20274;-57
2021/12/06 09:17:49;;;;;;;45.08;23.10;;;1.30;99.90;;;;;;5091433;28;20237;-53
2021/12/06 09:20:19;;;;;;;49.38;22.17;;;1.20;99.90;;;;;;5085479;28;20551;-52
2021/12/06 09:22:48;;;;;;;42.65;19.75;;;1.20;99.90;;;;;;5083056;28;20203;-54
2021/12/06 09:25:16;;;;;;;48.92;22.75;;;1.20;99.90;;;;;;5083439;28;20275;-53
2021/12/06 09:27:45;;;;;;;36.95;21.27;;;1.20;99.90;;;;;;5085460;28;20195;-53
2021/12/06 09:30:16;;;;;;;45.22;23.48;;;1.20;99.90;;;;;;5086752;28;20203;-57
2021/12/06 09:32:44;;;;;;;38.50;20.52;;;1.10;99.90;;;;;;5085814;28;20202;-54
2021/12/06 09:35:15;;;;;;;33.00;20.77;;;1.10;99.90;;;;;;5085842;28;20415;-53
2021/12/06 09:37:43;;;;;;;37.30;22.92;;;1.10;99.90;;;;;;5084815;28;20543;-53
2021/12/06 09:40:11;;;;;;;40.63;22.85;;;1.10;99.90;;;;;;5083764;28;20226;-60
2021/12/06 09:42:42;;;;;;;38.50;23.25;;;1.20;99.90;;;;;;5083711;28;20501;-51
2021/12/06 09:45:16;;;;;;;43.10;21.63;;;1.20;99.90;;;;;;5086302;28;20272;-55
2021/12/06 09:47:50;;;;;;;43.38;21.13;;;1.20;99.90;;;;;;5088753;28;20195;-54
2021/12/06 09:50:25;;;;;;;46.83;25.00;;;1.20;99.90;;;;;;5083456;28;20236;-55
2021/12/06 09:52:54;;;;;;;43.47;24.92;;;1.30;99.90;;;;;;5083506;28;20430;-51
2021/12/06 09:55:23;;;;;;;40.75;22.05;;;1.30;99.90;;;;;;5083118;28;20199;-54
2021/12/06 09:57:52;;;;;;;40.17;25.50;;;1.10;99.90;;;;;;5083323;28;20252;-53
2021/12/06 10:00:24;;;;;;;39.22;24.35;;;1.10;99.90;;;;;;5065567;28;20241;-51
2021/12/06 10:02:53;;;;;;;45.35;24.00;;;1.10;99.90;;;;;;5083174;28;20555;-57
2021/12/06 10:05:26;;;;;;;48.13;27.27;;;1.10;99.90;;;;;;5082975;28;20214;-53
2021/12/06 10:07:55;;;;;;;36.83;22.40;;;1.20;99.90;;;;;;5083035;28;20202;-52
2021/12/06 10:10:24;;;;;;;49.50;25.33;;;1.10;99.90;;;;;;5083249;28;20201;-53
2021/12/06 10:12:54;;;;;;;51.33;29.95;;;1.00;99.90;;;;;;5082832;28;20195;-52
2021/12/06 10:15:25;;;;;;;45.42;28.05;;;1.00;99.90;;;;;;5082995;28;20203;-54
2021/12/06 10:17:54;;;;;;;48.40;26.70;;;1.10;99.90;;;;;;5082344;28;20199;-52
2021/12/06 10:20:23;;;;;;;39.40;24.20;;;1.10;99.90;;;;;;5081513;28;20207;-54
2021/12/06 10:22:52;;;;;;;38.50;24.17;;;1.20;99.90;;;;;;5082776;28;20224;-52
2021/12/06 10:25:19;;;;;;;47.13;24.98;;;1.30;99.90;;;;;;5082770;28;20219;-52
2021/12/06 10:28:04;;;;;;;38.15;23.08;;;1.40;99.90;;;;;;5082863;28;20195;-55
2021/12/06 10:30:49;;;;;;;42.58;22.52;;;1.30;99.90;;;;;;5081960;28;20219;-57
2021/12/06 10:33:25;;;;;;;40.42;21.95;;;1.30;99.90;;;;;;5082855;28;20198;-52
2021/12/06 10:35:57;;;;;;;44.67;23.63;;;1.30;99.90;;;;;;5082161;28;20589;-52
2021/12/06 10:38:27;;;;;;;40.70;26.23;;;1.30;99.90;;;;;;5082906;28;20498;-52
2021/12/06 10:41:02;;;;;;;44.38;26.42;;;1.40;99.90;;;;;;5082085;28;20363;-56
2021/12/06 10:43:30;;;;;;;39.80;22.27;;;1.30;99.90;;;;;;5083576;28;20247;-54
2021/12/06 10:45:59;;;;;;;41.97;23.25;;;1.30;99.90;;;;;;5082267;28;20195;-51
2021/12/06 10:48:29;;;;;;;39.50;23.23;;;1.30;99.90;;;;;;5082962;28;20249;-53
2021/12/06 10:51:00;;;;;;;41.20;24.60;;;1.20;99.90;;;;;;5082569;28;20222;-54
2021/12/06 10:53:38;;;;;;;46.70;25.85;;;1.20;99.90;;;;;;5084070;28;20442;-52
2021/12/06 10:56:16;;;;;;;39.80;23.10;;;1.20;99.90;;;;;;5086658;28;20216;-55
2021/12/06 10:58:44;;;;;;;37.53;24.60;;;1.30;99.90;;;;;;5082709;28;20237;-54
2021/12/06 11:01:15;;;;;;;47.72;23.38;;;1.30;99.90;;;;;;5082290;28;20293;-51
2021/12/06 11:03:55;;;;;;;43.65;25.42;;;1.30;99.90;;;;;;5081569;28;20519;-51
2021/12/06 11:06:31;;;;;;;45.70;25.17;;;1.30;99.90;;;;;;5073184;28;20208;-55
2021/12/06 11:09:01;;;;;;;50.85;28.98;;;1.30;99.90;;;;;;5072964;28;20273;-55
2021/12/06 11:11:35;;;;;;;46.38;27.25;;;1.30;99.90;;;;;;5065515;28;20230;-55
2021/12/06 11:14:09;;;;;;;44.22;25.92;;;1.40;99.90;;;;;;5074372;28;20204;-53
2021/12/06 11:16:39;;;;;;;49.85;26.60;;;1.30;99.90;;;;;;5080368;28;20225;-52
2021/12/06 11:19:10;;;;;;;49.83;25.83;;;1.30;99.90;;;;;;5081016;28;20528;-54
2021/12/06 11:21:42;;;;;;;48.60;24.05;;;1.30;99.90;;;;;;5080991;28;20233;-52
2021/12/06 11:24:15;;;;;;;34.78;23.90;;;1.30;99.90;;;;;;5082629;28;20285;-53
2021/12/06 11:26:54;;;;;;;38.38;24.13;;;1.30;99.90;;;;;;5083264;28;20262;-55
2021/12/06 11:29:32;;;;;;;41.20;23.70;;;1.50;99.90;;;;;;5082749;28;20511;-54
2021/12/06 11:32:26;;;;;;;43.17;25.15;;;1.50;99.90;;;;;;5080225;28;20223;-52
2021/12/06 11:35:09;;;;;;;43.50;25.85;;;1.50;99.90;;;;;;5080931;28;20199;-54
2021/12/06 11:37:43;;;;;;;38.55;25.25;;;1.40;99.90;;;;;;5080615;28;20230;-53
2021/12/06 11:40:18;;;;;;;44.50;24.92;;;1.50;99.90;;;;;;5081019;28;20274;-52
2021/12/06 11:43:02;;;;;;;43.50;23.92;;;1.50;99.90;;;;;;5080630;28;20205;-53
2021/12/06 11:45:35;;;;;;;44.88;24.67;;;1.60;99.90;;;;;;5080772;28;20229;-53
2021/12/06 11:48:05;;;;;;;47.40;25.52;;;1.40;99.90;;;;;;5080312;28;20279;-54
2021/12/06 11:50:34;;;;;;;43.28;22.95;;;1.40;99.90;;;;;;5080851;28;20336;-54
2021/12/06 11:53:06;;;;;;;38.42;24.08;;;1.30;99.90;;;;;;5080595;28;20366;-54
2021/12/06 11:55:35;;;;;;;49.90;26.10;;;1.40;99.90;;;;;;5081291;28;20266;-56
2021/12/06 11:58:03;;;;;;;42.92;25.70;;;1.30;99.90;;;;;;5081990;28;20198;-55
2021/12/06 12:00:31;;;;;;;46.53;29.08;;;1.20;99.90;;;;;;5082342;28;20199;-54
2021/12/06 12:03:00;;;;;;;41.17;24.98;;;1.20;99.90;;;;;;5080141;28;20536;-55
2021/12/06 12:05:38;;;;;;;44.17;26.00;;;1.30;99.90;;;;;;5080449;28;20565;-54
2021/12/06 12:08:11;;;;;;;38.92;23.55;;;1.20;99.90;;;;;;5080292;28;20270;-53
2021/12/06 12:10:51;;;;;;;46.85;25.27;;;1.20;99.90;;;;;;5080213;28;20242;-51
2021/12/06 12:13:24;;;;;;;40.17;24.95;;;1.10;99.90;;;;;;5080175;28;20201;-52
2021/12/06 12:16:14;;;;;;;44.45;25.40;;;1.10;99.90;;;;;;5080014;28;20286;-56
2021/12/06 12:18:42;;;;;;;47.97;25.70;;;1.10;99.90;;;;;;5080161;28;20520;-54
2021/12/06 12:21:09;;;;;;;48.28;25.45;;;1.20;99.90;;;;;;5079702;28;20290;-54
2021/12/06 12:23:38;;;;;;;63.30;30.35;;;1.10;99.90;;;;;;5080174;28;20198;-50
2021/12/06 12:26:12;;;;;;;46.72;28.45;;;1.20;99.90;;;;;;5084511;28;20252;-56
2021/12/06 12:28:52;;;;;;;46.10;25.73;;;1.10;99.90;;;;;;5086333;28;20233;-53
2021/12/06 12:31:22;;;;;;;47.92;26.33;;;1.10;99.90;;;;;;5088378;28;20258;-59
2021/12/06 12:33:50;;;;;;;51.20;30.08;;;1.10;99.90;;;;;;5086799;28;20194;-53
2021/12/06 12:36:20;;;;;;;48.10;27.73;;;1.10;99.90;;;;;;5082038;28;20563;-56
2021/12/06 12:38:53;;;;;;;51.30;27.83;;;1.00;99.90;;;;;;5085851;28;20237;-54
2021/12/06 12:41:22;;;;;;;48.30;25.88;;;1.00;99.90;;;;;;5080759;28;20223;-50
2021/12/06 12:43:59;;;;;;;54.80;27.58;;;1.00;99.90;;;;;;5071516;28;20374;-55
2021/12/06 12:46:39;;;;;;;42.85;25.38;;;1.00;99.90;;;;;;5080201;28;20209;-51
2021/12/06 12:49:17;;;;;;;48.00;24.70;;;1.00;99.90;;;;;;5079623;28;20329;-50
2021/12/06 12:51:48;;;;;;;40.13;25.42;;;1.00;99.90;;;;;;5079973;28;20555;-53
2021/12/06 12:54:18;;;;;;;47.20;24.50;;;0.90;99.90;;;;;;5081589;28;20580;-50
2021/12/06 12:56:55;;;;;;;52.25;25.48;;;0.90;99.90;;;;;;5083660;28;20217;-53
2021/12/06 12:59:30;;;;;;;47.60;25.70;;;0.90;99.90;;;;;;5083465;28;20229;-51
2021/12/06 13:02:28;;;;;;;37.17;21.30;;;0.90;99.90;;;;;;5083116;28;20214;-52
2021/12/06 13:04:59;;;;;;;44.47;27.20;;;0.90;99.90;;;;;;5082125;28;20345;-53